createdAt,value
2019-03-25T00:02:17.600Z,2.40
2019-03-25T00:04:47.890Z,2.50
2019-03-25T00:07:18.290Z,2.40
2019-03-25T00:09:48.297Z,2.40
2019-03-25T00:12:18.448Z,2.50
2019-03-25T00:14:48.604Z,2.40
2019-03-25T00:17:18.604Z,2.40
2019-03-25T00:19:48.576Z,2.30
2019-03-25T00:22:18.597Z,2.30
2019-03-25T00:24:48.602Z,2.30
2019-03-25T00:27:18.584Z,2.30
2019-03-25T00:29:48.577Z,2.40
2019-03-25T00:32:18.559Z,2.40
2019-03-25T00:34:48.538Z,2.40
2019-03-25T00:37:18.575Z,2.30
2019-03-25T00:39:48.562Z,2.40
2019-03-25T00:42:18.536Z,2.40
2019-03-25T00:44:48.555Z,2.40
2019-03-25T00:47:18.520Z,2.50
2019-03-25T00:49:48.518Z,2.50
2019-03-25T00:52:18.473Z,2.40
2019-03-25T00:54:50.132Z,2.50
2019-03-25T00:57:20.123Z,2.50
2019-03-25T00:59:50.113Z,2.50
2019-03-25T01:02:20.137Z,2.50
2019-03-25T01:04:50.577Z,2.50
2019-03-25T01:07:20.756Z,2.50
2019-03-25T01:09:50.740Z,2.60
2019-03-25T01:12:20.732Z,2.50
2019-03-25T01:14:50.734Z,2.50
2019-03-25T01:17:20.803Z,2.60
2019-03-25T01:19:51.005Z,2.50
2019-03-25T01:22:21.080Z,2.50
2019-03-25T01:25:01.439Z,2.50
2019-03-25T01:27:22.684Z,2.50
2019-03-25T01:29:52.714Z,2.50
2019-03-25T01:32:22.722Z,2.60
2019-03-25T01:34:52.728Z,2.50
2019-03-25T01:37:22.724Z,2.50
2019-03-25T01:39:52.682Z,2.40
2019-03-25T01:42:22.700Z,2.40
2019-03-25T01:44:52.692Z,2.40
2019-03-25T01:47:22.653Z,2.40
2019-03-25T01:49:52.779Z,2.40
2019-03-25T01:52:22.786Z,2.40
2019-03-25T01:54:52.772Z,2.40
2019-03-25T01:57:22.841Z,2.30
2019-03-25T01:59:52.855Z,2.40
2019-03-25T02:02:23.103Z,2.40
2019-03-25T02:04:53.145Z,2.30
2019-03-25T02:07:23.119Z,2.30
2019-03-25T02:09:53.113Z,2.30
2019-03-25T02:12:23.091Z,2.30
2019-03-25T02:14:53.253Z,2.20
2019-03-25T02:17:23.248Z,2.20
2019-03-25T02:19:53.240Z,2.20
2019-03-25T02:22:23.223Z,2.20
2019-03-25T02:24:53.193Z,2.10
2019-03-25T02:27:23.223Z,2.10
2019-03-25T02:29:53.216Z,2.10
2019-03-25T02:32:23.226Z,2.10
2019-03-25T02:34:53.247Z,2.10
2019-03-25T02:37:23.240Z,2.10
2019-03-25T02:39:53.214Z,2.10
2019-03-25T02:42:23.269Z,2.10
2019-03-25T02:44:53.200Z,2.10
2019-03-25T02:47:23.261Z,2.00
2019-03-25T02:49:53.362Z,2.00
2019-03-25T02:52:23.484Z,1.90
2019-03-25T02:54:53.455Z,2.00
2019-03-25T02:57:23.583Z,2.00
2019-03-25T02:59:53.556Z,1.90
2019-03-25T03:02:23.568Z,1.90
2019-03-25T03:04:53.620Z,1.80
2019-03-25T03:07:23.662Z,1.80
2019-03-25T03:09:53.642Z,1.80
2019-03-25T03:12:23.883Z,1.80
2019-03-25T03:14:54.133Z,1.80
2019-03-25T03:17:24.179Z,1.70
2019-03-25T03:19:55.321Z,1.70
2019-03-25T03:22:25.484Z,1.70
2019-03-25T03:24:55.463Z,1.70
2019-03-25T03:27:25.481Z,1.70
2019-03-25T03:29:55.503Z,1.70
2019-03-25T03:32:25.477Z,1.70
2019-03-25T03:34:55.517Z,1.70
2019-03-25T03:37:25.489Z,1.70
2019-03-25T03:39:55.455Z,1.70
2019-03-25T03:42:25.848Z,1.70
2019-03-25T03:44:55.914Z,1.70
2019-03-25T03:47:25.875Z,1.70
2019-03-25T03:49:55.839Z,1.70
2019-03-25T03:52:26.045Z,1.80
2019-03-25T03:54:56.170Z,1.80
2019-03-25T03:57:26.474Z,1.80
2019-03-25T03:59:56.717Z,1.80
2019-03-25T04:02:26.988Z,1.70
2019-03-25T04:04:56.957Z,1.70
2019-03-25T04:07:26.997Z,1.70
2019-03-25T04:09:56.930Z,1.70
2019-03-25T04:12:26.952Z,1.70
2019-03-25T04:14:57.088Z,1.70
2019-03-25T04:17:27.086Z,1.70
2019-03-25T04:19:57.084Z,1.80
2019-03-25T04:22:27.064Z,1.70
2019-03-25T04:24:57.038Z,1.80
2019-03-25T04:27:27.012Z,1.90
2019-03-25T04:29:57.053Z,1.90
2019-03-25T04:32:27.153Z,1.90
2019-03-25T04:34:57.294Z,1.90
2019-03-25T04:37:27.299Z,1.90
2019-03-25T04:39:57.972Z,1.90
2019-03-25T04:42:28.085Z,2.00
2019-03-25T04:44:58.102Z,2.00
2019-03-25T04:47:28.117Z,2.00
2019-03-25T04:49:58.150Z,2.00
2019-03-25T04:52:28.134Z,2.00
2019-03-25T04:54:58.118Z,2.10
2019-03-25T04:57:28.122Z,2.10
2019-03-25T04:59:58.089Z,2.10
2019-03-25T05:02:28.204Z,2.20
2019-03-25T05:04:58.175Z,2.20
2019-03-25T05:07:28.195Z,2.30
2019-03-25T05:09:58.206Z,2.20
2019-03-25T05:12:28.425Z,2.30
2019-03-25T05:14:58.615Z,2.30
2019-03-25T05:17:28.695Z,2.40
2019-03-25T05:19:58.696Z,2.50
2019-03-25T05:22:28.676Z,2.50
2019-03-25T05:24:58.766Z,2.60
2019-03-25T05:27:28.757Z,2.70
2019-03-25T05:29:58.872Z,2.80
2019-03-25T05:32:28.925Z,2.90
2019-03-25T05:34:58.975Z,3.00
2019-03-25T05:37:28.993Z,3.10
2019-03-25T05:39:59.000Z,3.10
2019-03-25T05:42:29.085Z,3.20
2019-03-25T05:44:59.165Z,3.30
2019-03-25T05:47:29.305Z,3.40
2019-03-25T05:49:59.321Z,3.50
2019-03-25T05:52:29.329Z,3.60
2019-03-25T05:54:59.413Z,3.60
2019-03-25T05:57:29.437Z,3.70
2019-03-25T05:59:59.471Z,3.80
2019-03-25T06:02:29.483Z,3.80
2019-03-25T06:04:59.769Z,3.90
2019-03-25T06:07:29.795Z,4.00
2019-03-25T06:09:59.772Z,4.10
2019-03-25T06:12:29.791Z,4.20
2019-03-25T06:14:59.814Z,4.30
2019-03-25T06:17:29.849Z,4.50
2019-03-25T06:19:59.999Z,4.60
2019-03-25T06:22:29.991Z,4.90
2019-03-25T06:24:59.969Z,5.00
2019-03-25T06:27:29.941Z,5.20
2019-03-25T06:29:59.942Z,5.50
2019-03-25T06:32:30.065Z,5.60
2019-03-25T06:35:00.070Z,5.60
2019-03-25T06:37:30.190Z,6.10
2019-03-25T06:40:00.330Z,6.20
2019-03-25T06:42:30.351Z,6.40
2019-03-25T06:45:00.434Z,6.30
2019-03-25T06:47:30.390Z,6.40
2019-03-25T07:07:24.750Z,7.60
2019-03-25T07:09:55.153Z,7.40
2019-03-25T07:14:54.924Z,7.90
2019-03-25T07:17:24.996Z,8.10
2019-03-25T07:19:55.021Z,7.80
2019-03-25T07:29:52.746Z,8.00
2019-03-25T07:32:22.801Z,7.80
2019-03-25T07:34:52.871Z,7.30
2019-03-25T07:37:23.776Z,7.40
2019-03-25T07:39:53.860Z,7.80
2019-03-25T07:52:20.831Z,9.70
2019-03-25T07:54:50.890Z,10.40
2019-03-25T07:57:20.967Z,10.50
2019-03-25T08:07:18.790Z,10.50
2019-03-25T08:09:48.901Z,10.60
2019-03-25T08:12:19.230Z,10.60
2019-03-25T08:14:49.318Z,11.00
2019-03-25T08:17:19.493Z,10.70
2019-03-25T08:24:47.869Z,10.00
2019-03-25T08:27:17.891Z,9.50
2019-03-25T08:29:47.875Z,9.60
2019-03-25T08:32:18.377Z,9.70
2019-03-25T08:47:14.949Z,10.90
2019-03-25T08:54:43.401Z,10.90
2019-03-25T08:57:13.533Z,11.70
2019-03-25T09:02:13.235Z,11.80
2019-03-25T09:22:08.296Z,11.40
2019-03-25T09:24:38.309Z,12.00
2019-03-25T09:27:08.334Z,12.40
2019-03-25T09:29:39.135Z,13.70
2019-03-25T09:32:09.178Z,14.50
2019-03-25T09:37:08.383Z,12.20
2019-03-25T09:39:38.390Z,13.20
2019-03-25T09:42:08.460Z,13.50
2019-03-25T09:44:38.420Z,13.60
2019-03-25T09:47:08.458Z,14.30
2019-03-25T09:52:07.616Z,13.30
2019-03-25T09:54:37.656Z,12.90
2019-03-25T10:04:35.238Z,12.00
2019-03-25T10:07:05.273Z,13.60
2019-03-25T10:09:35.366Z,14.20
2019-03-25T10:12:05.545Z,14.30
2019-03-25T10:14:35.705Z,15.30
2019-03-25T10:17:05.684Z,14.30
2019-03-25T10:19:35.800Z,15.40
2019-03-25T10:22:06.091Z,15.20
2019-03-25T10:32:04.005Z,13.00
2019-03-25T10:37:03.253Z,11.70
2019-03-25T10:39:34.276Z,13.10
2019-03-25T10:42:04.298Z,13.30
2019-03-25T10:47:03.636Z,13.40
2019-03-25T10:52:02.764Z,13.30
2019-03-25T10:54:32.840Z,14.10
2019-03-25T10:57:03.024Z,13.90
2019-03-25T11:02:02.184Z,12.70
2019-03-25T11:04:32.193Z,11.70
2019-03-25T11:07:02.246Z,11.30
2019-03-25T11:09:32.356Z,11.30
2019-03-25T11:12:02.438Z,11.30
2019-03-25T11:14:32.434Z,11.40
2019-03-25T11:22:00.752Z,11.90
2019-03-25T11:24:30.808Z,11.60
2019-03-25T11:27:00.844Z,11.60
2019-03-25T11:29:30.824Z,11.40
2019-03-25T11:32:01.049Z,11.40
2019-03-25T11:34:31.208Z,11.20
2019-03-25T11:39:30.348Z,12.70
2019-03-25T11:44:29.584Z,12.30
2019-03-25T11:46:59.616Z,11.70
2019-03-25T11:49:29.648Z,11.10
2019-03-25T11:51:59.604Z,10.40
2019-03-25T11:54:29.608Z,10.10
2019-03-25T11:56:59.597Z,10.10
2019-03-25T11:59:29.563Z,10.00
2019-03-25T12:01:59.564Z,10.00
2019-03-25T12:04:29.721Z,10.20
2019-03-25T12:09:28.922Z,13.30
2019-03-25T12:11:59.021Z,13.90
2019-03-25T12:14:29.244Z,14.60
2019-03-25T12:16:59.428Z,13.70
2019-03-25T12:19:29.489Z,12.70
2019-03-25T12:21:59.582Z,11.60
2019-03-25T12:24:29.579Z,11.60
2019-03-25T12:26:59.592Z,11.10
2019-03-25T12:29:30.686Z,10.60
2019-03-25T12:32:00.882Z,10.70
2019-03-25T12:34:30.947Z,10.80
2019-03-25T12:37:00.904Z,10.40
2019-03-25T12:39:30.993Z,10.10
2019-03-25T12:42:01.387Z,10.30
2019-03-25T12:44:31.472Z,10.00
2019-03-25T12:47:01.489Z,10.40
2019-03-25T12:49:31.491Z,10.50
2019-03-25T12:54:30.693Z,11.00
2019-03-25T12:57:00.752Z,11.10
2019-03-25T12:59:40.829Z,10.90
2019-03-25T13:02:02.510Z,10.80
2019-03-25T13:04:32.504Z,10.70
2019-03-25T13:12:01.236Z,12.00
2019-03-25T13:14:31.378Z,11.90
2019-03-25T13:17:01.503Z,11.00
2019-03-25T13:19:31.732Z,10.10
2019-03-25T13:22:01.786Z,9.30
2019-03-25T13:24:31.843Z,9.30
2019-03-25T13:27:11.217Z,9.00
2019-03-25T13:29:51.767Z,9.70
2019-03-25T13:44:39.138Z,11.30
2019-03-25T13:47:09.304Z,10.50
2019-03-25T13:49:39.563Z,10.50
2019-03-25T13:54:39.266Z,14.30
2019-03-25T13:57:09.349Z,15.20
2019-03-25T13:59:39.507Z,14.90
2019-03-25T14:02:09.771Z,17.40
2019-03-25T14:04:39.905Z,18.00
2019-03-25T14:07:09.878Z,17.60
2019-03-25T14:09:39.899Z,16.40
2019-03-25T14:19:37.631Z,12.00
2019-03-25T14:22:07.689Z,11.50
2019-03-25T14:24:37.657Z,11.40
2019-03-25T14:27:07.630Z,11.10
2019-03-25T14:29:37.660Z,10.50
2019-03-25T14:32:07.754Z,10.10
2019-03-25T14:34:44.662Z,9.60
2019-03-25T14:37:09.350Z,9.70
2019-03-25T14:39:39.361Z,9.50
2019-03-25T14:42:09.376Z,9.10
2019-03-25T14:44:39.531Z,9.20
2019-03-25T14:47:09.670Z,9.10
2019-03-25T14:49:39.713Z,9.00
2019-03-25T14:52:09.681Z,8.80
2019-03-25T14:54:40.246Z,8.60
2019-03-25T14:57:10.253Z,8.50
2019-03-25T14:59:40.508Z,8.20
2019-03-25T15:02:10.822Z,8.20
2019-03-25T15:04:40.942Z,7.90
2019-03-25T15:07:11.108Z,7.70
2019-03-25T15:09:41.149Z,7.60
2019-03-25T15:12:11.213Z,7.50
2019-03-25T15:14:41.286Z,7.50
2019-03-25T15:17:11.599Z,7.30
2019-03-25T15:19:41.621Z,7.10
2019-03-25T15:22:11.645Z,6.90
2019-03-25T15:24:41.720Z,6.30
2019-03-25T15:27:11.800Z,5.40
2019-03-25T15:29:41.919Z,4.70
2019-03-25T15:32:11.949Z,4.60
2019-03-25T15:34:41.957Z,4.50
2019-03-25T15:37:12.013Z,4.60
2019-03-25T15:39:46.627Z,4.60
2019-03-25T15:42:13.797Z,4.60
2019-03-25T15:44:43.791Z,4.80
2019-03-25T15:47:14.137Z,4.90
2019-03-25T15:49:44.185Z,4.90
2019-03-25T15:52:14.191Z,5.00
2019-03-25T15:54:44.201Z,4.80
2019-03-25T15:57:14.203Z,5.00
2019-03-25T15:59:44.323Z,5.00
2019-03-25T16:02:14.341Z,5.00
2019-03-25T16:04:44.309Z,5.00
2019-03-25T16:07:14.335Z,5.00
2019-03-25T16:09:44.334Z,4.90
2019-03-25T16:12:14.365Z,4.90
2019-03-25T16:14:44.534Z,4.90
2019-03-25T16:17:14.592Z,4.80
2019-03-25T16:19:44.616Z,4.80
2019-03-25T16:22:14.709Z,4.80
2019-03-25T16:24:44.814Z,4.80
2019-03-25T16:27:15.186Z,4.80
2019-03-25T16:29:45.285Z,4.90
2019-03-25T16:32:15.318Z,4.90
2019-03-25T16:34:45.494Z,4.90
2019-03-25T16:37:15.964Z,4.90
2019-03-25T16:39:45.932Z,5.00
2019-03-25T16:42:19.228Z,5.00
2019-03-25T16:44:49.290Z,4.90
2019-03-25T16:47:19.260Z,4.90
2019-03-25T16:49:49.330Z,4.90
2019-03-25T16:52:19.294Z,4.80
2019-03-25T16:54:49.465Z,4.90
2019-03-25T16:57:19.830Z,4.60
2019-03-25T16:59:49.969Z,4.50
2019-03-25T17:02:19.947Z,4.30
2019-03-25T17:04:50.026Z,4.00
2019-03-25T17:07:20.242Z,3.90
2019-03-25T17:09:50.434Z,3.90
2019-03-25T17:12:20.781Z,3.80
2019-03-25T17:14:50.920Z,3.70
2019-03-25T17:17:22.737Z,3.60
2019-03-25T17:19:52.726Z,3.60
2019-03-25T17:22:49.742Z,3.50
2019-03-25T17:25:19.923Z,3.50
2019-03-25T17:27:50.207Z,3.50
2019-03-25T17:30:21.339Z,3.40
2019-03-25T17:32:51.574Z,3.40
2019-03-25T17:35:21.673Z,3.40
2019-03-25T17:37:51.892Z,3.30
2019-03-25T17:40:22.055Z,3.30
2019-03-25T17:42:52.231Z,3.40
2019-03-25T17:45:22.439Z,3.60
2019-03-25T17:47:52.416Z,3.80
2019-03-25T17:50:22.456Z,3.90
2019-03-25T17:52:52.444Z,4.00
2019-03-25T17:55:22.448Z,4.00
2019-03-25T17:57:52.493Z,3.90
2019-03-25T18:01:00.411Z,3.80
2019-03-25T18:03:30.462Z,3.70
2019-03-25T18:06:00.511Z,3.60
2019-03-25T18:08:30.493Z,3.50
2019-03-25T18:11:00.789Z,3.50
2019-03-25T18:13:30.776Z,3.50
2019-03-25T18:16:00.829Z,3.40
2019-03-25T18:18:30.801Z,3.30
2019-03-25T18:21:00.862Z,3.40
2019-03-25T18:23:30.847Z,3.20
2019-03-25T18:26:01.020Z,3.10
2019-03-25T18:28:31.015Z,3.10
2019-03-25T18:31:01.329Z,3.00
2019-03-25T18:33:31.329Z,2.80
2019-03-25T18:36:01.332Z,2.70
2019-03-25T18:38:31.346Z,2.60
2019-03-25T18:41:01.412Z,2.50
2019-03-25T18:43:31.495Z,2.40
2019-03-25T18:46:01.498Z,2.30
2019-03-25T18:48:31.533Z,2.20
2019-03-25T18:51:01.610Z,2.20
2019-03-25T18:53:31.619Z,2.00
2019-03-25T18:56:01.627Z,2.00
2019-03-25T18:58:31.819Z,1.90
2019-03-25T19:01:02.175Z,1.80
2019-03-25T19:03:33.105Z,1.80
2019-03-25T19:06:03.403Z,1.80
2019-03-25T19:08:33.423Z,1.80
2019-03-25T19:11:03.489Z,1.80
2019-03-25T19:13:33.682Z,1.70
2019-03-25T19:16:03.707Z,1.70
2019-03-25T19:18:33.669Z,1.60
2019-03-25T19:21:03.742Z,1.60
2019-03-25T19:23:33.821Z,1.60
2019-03-25T19:26:03.810Z,1.70
2019-03-25T19:28:33.908Z,1.80
2019-03-25T19:31:04.018Z,1.70
2019-03-25T19:33:34.075Z,1.70
2019-03-25T19:36:04.123Z,1.70
2019-03-25T19:38:34.167Z,1.60
2019-03-25T19:41:04.151Z,1.60
2019-03-25T19:43:34.115Z,1.60
2019-03-25T19:46:04.122Z,1.50
2019-03-25T19:48:34.301Z,1.60
2019-03-25T19:51:04.519Z,1.60
2019-03-25T19:53:34.576Z,1.60
2019-03-25T19:56:04.843Z,1.50
2019-03-25T19:58:34.842Z,1.40
2019-03-25T20:01:04.970Z,1.40
2019-03-25T20:03:34.954Z,1.40
2019-03-25T20:06:05.039Z,1.40
2019-03-25T20:08:35.057Z,1.40
2019-03-25T20:11:05.033Z,1.40
2019-03-25T20:13:35.116Z,1.30
2019-03-25T20:16:05.153Z,1.20
2019-03-25T20:18:35.264Z,1.20
2019-03-25T20:21:05.365Z,1.10
2019-03-25T20:23:35.384Z,1.10
2019-03-25T20:26:05.793Z,1.00
2019-03-25T20:28:35.778Z,1.00
2019-03-25T20:31:05.888Z,0.90
2019-03-25T20:33:35.984Z,0.90
2019-03-25T20:36:06.078Z,1.00
2019-03-25T20:38:36.072Z,0.90
2019-03-25T20:41:06.299Z,0.90
2019-03-25T20:43:36.361Z,0.90
2019-03-25T20:46:06.359Z,1.00
2019-03-25T20:48:36.348Z,1.00
2019-03-25T20:51:06.360Z,1.10
2019-03-25T20:53:36.393Z,1.10
2019-03-25T20:56:06.479Z,1.10
2019-03-25T20:58:36.529Z,1.10
2019-03-25T21:01:06.803Z,1.00
2019-03-25T21:03:36.801Z,1.00
2019-03-25T21:06:07.402Z,1.00
2019-03-25T21:08:37.427Z,0.90
2019-03-25T21:11:07.498Z,0.80
2019-03-25T21:13:37.607Z,0.70
2019-03-25T21:16:08.107Z,0.60
2019-03-25T21:18:38.197Z,0.50
2019-03-25T21:21:08.202Z,0.60
2019-03-25T21:23:38.246Z,0.50
2019-03-25T21:26:10.930Z,0.50
2019-03-25T21:28:39.992Z,0.50
2019-03-25T21:31:10.199Z,0.30
2019-03-25T21:33:40.197Z,0.40
2019-03-25T21:36:10.211Z,0.30
2019-03-25T21:38:40.267Z,0.30
2019-03-25T21:41:10.240Z,0.30
2019-03-25T21:43:40.423Z,0.20
2019-03-25T21:46:10.452Z,0.20
2019-03-25T21:48:40.540Z,0.00
2019-03-25T21:51:10.607Z,-0.10
2019-03-25T21:53:40.547Z,0.00
2019-03-25T21:56:10.590Z,0.00
2019-03-25T21:58:40.634Z,0.00
2019-03-25T22:01:10.766Z,0.10
2019-03-25T22:03:40.759Z,0.00
2019-03-25T22:06:10.805Z,0.00
2019-03-25T22:08:40.801Z,-0.10
2019-03-25T22:11:10.779Z,-0.10
2019-03-25T22:13:40.851Z,-0.10
2019-03-25T22:16:10.904Z,0.00
2019-03-25T22:18:40.896Z,0.10
2019-03-25T22:21:10.867Z,0.10
2019-03-25T22:23:40.908Z,0.20
2019-03-25T22:26:10.937Z,0.20
2019-03-25T22:28:41.159Z,0.20
2019-03-25T22:31:11.136Z,0.20
2019-03-25T22:33:41.133Z,0.30
2019-03-25T22:36:11.136Z,0.40
2019-03-25T22:38:41.095Z,0.50
2019-03-25T22:41:11.159Z,0.50
2019-03-25T22:43:41.185Z,0.40
2019-03-25T22:46:11.178Z,0.30
2019-03-25T22:48:41.133Z,0.30
2019-03-25T22:51:11.093Z,0.30
2019-03-25T22:53:41.103Z,0.30
2019-03-25T22:56:11.098Z,0.10
2019-03-25T22:58:41.099Z,0.00
2019-03-25T23:01:11.314Z,0.00
2019-03-25T23:03:41.527Z,0.00
2019-03-25T23:06:11.487Z,-0.10
2019-03-25T23:08:41.613Z,0.00
2019-03-25T23:11:11.955Z,0.00
2019-03-25T23:13:42.069Z,0.00
2019-03-25T23:16:12.597Z,0.00
2019-03-25T23:18:42.797Z,-0.20
2019-03-25T23:21:12.925Z,-0.10
2019-03-25T23:23:42.930Z,-0.10
2019-03-25T23:26:12.907Z,-0.20
2019-03-25T23:28:43.005Z,-0.20
2019-03-25T23:31:13.147Z,-0.10
2019-03-25T23:33:52.184Z,-0.10
2019-03-25T23:36:14.852Z,-0.10
2019-03-25T23:38:44.873Z,-0.10
2019-03-25T23:41:14.885Z,-0.10
2019-03-25T23:43:44.899Z,-0.10
2019-03-25T23:46:14.916Z,-0.10
2019-03-25T23:48:44.887Z,-0.10
2019-03-25T23:51:14.871Z,0.00
2019-03-25T23:53:44.863Z,0.00
2019-03-25T23:56:14.828Z,0.10
2019-03-25T23:58:44.781Z,0.10
